Portada
METAR-TAF:

METAR-TAF

Aeroports :

Ufà, Rússia

latitud: 54-43-48N, longitud: 055-55-48E, altitud: 137 m

Observació

L'informe es va fer fa 15 minuts, a les 16:30 UTC
Vent 6 kt del Sud-Est
Temperatura 10°C
Humitat 76%
Pressió 1034 hPa
Visibilitat 10 km o més
sense núvols per sota de 1500 mi sense presència de cumulonimbus.

METAR: UWUU 131630Z 14003MPS CAVOK 10/06 Q1034 R14R/0///60 NOSIG

Hora: 21:45 (16:45 UTC)

Pronòstic

L'informe es va fer fa 2 hores i 51 minuts, a les 13:54 UTC
Pronòstic vàlid del 13 a les 15 UTC al 14 a les 15 UTC
Vent 10 kt del Sud/Sud-Oest
Visibilitat 10 km o més
Cel ennuvolat a una alçada de 4000 ft
Temporalment
l' 13 a les 15 UTC al 13 a les 18 UTC
Vent 6 kt del Sud/Sud-Est amb ràfegues de 16 kt
Temporalment
l' 13 a les 18 UTC al 14 a les 06 UTC
Vent 2 kt amb direcció variable
Visibilitat: 0200 m
a una alçada de 300 ft
boira

TAF: UWUU 131354Z 1315/1415 20005MPS 9999 BKN040 TX19/1412Z TN03/1403Z TEMPO 1315/1318 16003G08MPS TEMPO 1318/1406 VRB01MPS 0200 FG VV003

Observacions i pronòstics meteorològics de més de 4000 aeroports (METAR i TAF).

Les estacions disponibles són els punts grocs i vermells al mapa.

Posi el ratolí al punt desitjat per veure el nom de l'estació.

Feu clic per veure les observacions i els pronòstics meteorològics.

Per canviar el mapa: feu clic els botons verds amb una creu de color negre per apropar; al botó verd amb un guió per allunyar la imatge; o en les fletxes verdes per a mapes adjacents.


METAR-TAF: